sensor_id;sensor_type;location;lat;lon;timestamp;pressure;altitude;pressure_sealevel;temperature;humidity
68320;BME280;55168;51.120;17.024;2023-02-22T00:00:00;100210;;;5.0;100.0
68320;BME280;55168;51.120;17.024;2023-02-22T00:01:00;100210;;;5.0;100.0
68320;BME280;55168;51.120;17.024;2023-02-22T00:02:00;100210;;;5.0;100.0
68320;BME280;55168;51.120;17.024;2023-02-22T00:03:00;100210;;;4.9;100.0
68320;BME280;55168;51.120;17.024;2023-02-22T00:04:01;100210;;;4.9;100.0
68320;BME280;55168;51.120;17.024;2023-02-22T00:05:00;100210;;;4.9;100.0
68320;BME280;55168;51.120;17.024;2023-02-22T00:06:01;100210;;;4.9;100.0
68320;BME280;55168;51.120;17.024;2023-02-22T00:07:00;100220;;;4.8;100.0
68320;BME280;55168;51.120;17.024;2023-02-22T00:08:00;100220;;;4.8;100.0
68320;BME280;55168;51.120;17.024;2023-02-22T00:09:00;100220;;;4.8;100.0
68320;BME280;55168;51.120;17.024;2023-02-22T00:10:00;100220;;;4.8;100.0
68320;BME280;55168;51.120;17.024;2023-02-22T00:11:01;100230;;;4.8;100.0
68320;BME280;55168;51.120;17.024;2023-02-22T00:12:00;100230;;;4.8;100.0
68320;BME280;55168;51.120;17.024;2023-02-22T00:13:00;100230;;;4.8;100.0
68320;BME280;55168;51.120;17.024;2023-02-22T00:14:00;100220;;;4.7;100.0
68320;BME280;55168;51.120;17.024;2023-02-22T00:15:00;100230;;;4.7;100.0
68320;BME280;55168;51.120;17.024;2023-02-22T00:16:00;100230;;;4.7;100.0
68320;BME280;55168;51.120;17.024;2023-02-22T00:17:00;100230;;;4.6;100.0
68320;BME280;55168;51.120;17.024;2023-02-22T00:18:00;100230;;;4.6;100.0
68320;BME280;55168;51.120;17.024;2023-02-22T00:19:00;100230;;;4.6;100.0
68320;BME280;55168;51.120;17.024;2023-02-22T00:20:00;100230;;;4.6;100.0
68320;BME280;55168;51.120;17.024;2023-02-22T00:21:00;100230;;;4.6;100.0
68320;BME280;55168;51.120;17.024;2023-02-22T00:22:00;100230;;;4.5;100.0
68320;BME280;55168;51.120;17.024;2023-02-22T00:23:00;100230;;;4.5;100.0
68320;BME280;55168;51.120;17.024;2023-02-22T00:24:00;100230;;;4.5;100.0
68320;BME280;55168;51.120;17.024;2023-02-22T00:25:00;100240;;;4.5;100.0
68320;BME280;55168;51.120;17.024;2023-02-22T00:26:00;100230;;;4.4;100.0
68320;BME280;55168;51.120;17.024;2023-02-22T00:27:00;100240;;;4.4;100.0
68320;BME280;55168;51.120;17.024;2023-02-22T00:28:00;100240;;;4.4;100.0
68320;BME280;55168;51.120;17.024;2023-02-22T00:29:00;100240;;;4.4;100.0
68320;BME280;55168;51.120;17.024;2023-02-22T00:30:00;100240;;;4.4;100.0
68320;BME280;55168;51.120;17.024;2023-02-22T00:31:00;100240;;;4.4;100.0
68320;BME280;55168;51.120;17.024;2023-02-22T00:32:00;100240;;;4.3;100.0
68320;BME280;55168;51.120;17.024;2023-02-22T00:33:00;100240;;;4.3;100.0
68320;BME280;55168;51.120;17.024;2023-02-22T00:34:00;100240;;;4.3;100.0
68320;BME280;55168;51.120;17.024;2023-02-22T00:35:00;100240;;;4.3;100.0
68320;BME280;55168;51.120;17.024;2023-02-22T00:36:00;100240;;;4.3;100.0
68320;BME280;55168;51.120;17.024;2023-02-22T00:37:00;100240;;;4.3;100.0
68320;BME280;55168;51.120;17.024;2023-02-22T00:38:00;100240;;;4.2;100.0
68320;BME280;55168;51.120;17.024;2023-02-22T00:39:00;100240;;;4.2;100.0
68320;BME280;55168;51.120;17.024;2023-02-22T00:40:00;100240;;;4.2;100.0
68320;BME280;55168;51.120;17.024;2023-02-22T00:41:00;100240;;;4.2;100.0
68320;BME280;55168;51.120;17.024;2023-02-22T00:42:00;100240;;;4.2;100.0
68320;BME280;55168;51.120;17.024;2023-02-22T00:43:01;100240;;;4.1;100.0
68320;BME280;55168;51.120;17.024;2023-02-22T00:44:00;100240;;;4.1;100.0
68320;BME280;55168;51.120;17.024;2023-02-22T00:45:00;100250;;;4.1;100.0
68320;BME280;55168;51.120;17.024;2023-02-22T00:46:00;100250;;;4.1;100.0
68320;BME280;55168;51.120;17.024;2023-02-22T00:47:00;100250;;;4.1;100.0
68320;BME280;55168;51.120;17.024;2023-02-22T00:48:00;100250;;;4.1;100.0
68320;BME280;55168;51.120;17.024;2023-02-22T00:49:00;100250;;;4.0;100.0
68320;BME280;55168;51.120;17.024;2023-02-22T00:50:00;100250;;;4.0;100.0
68320;BME280;55168;51.120;17.024;2023-02-22T00:51:00;100250;;;4.0;100.0
68320;BME280;55168;51.120;17.024;2023-02-22T00:52:00;100250;;;4.0;100.0
68320;BME280;55168;51.120;17.024;2023-02-22T00:53:00;100250;;;4.0;100.0
68320;BME280;55168;51.120;17.024;2023-02-22T00:54:00;100250;;;4.0;100.0
68320;BME280;55168;51.120;17.024;2023-02-22T00:55:00;100250;;;3.9;100.0
68320;BME280;55168;51.120;17.024;2023-02-22T00:56:00;100250;;;3.9;100.0
68320;BME280;55168;51.120;17.024;2023-02-22T00:57:00;100250;;;3.9;100.0
68320;BME280;55168;51.120;17.024;2023-02-22T00:58:00;100260;;;3.9;100.0
68320;BME280;55168;51.120;17.024;2023-02-22T00:59:00;100250;;;3.9;100.0
68320;BME280;55168;51.120;17.024;2023-02-22T01:00:02;100260;;;3.8;100.0
68320;BME280;55168;51.120;17.024;2023-02-22T01:01:00;100260;;;3.8;100.0
68320;BME280;55168;51.120;17.024;2023-02-22T01:02:00;100260;;;3.8;100.0
68320;BME280;55168;51.120;17.024;2023-02-22T01:03:00;100260;;;3.8;100.0
68320;BME280;55168;51.120;17.024;2023-02-22T01:04:00;100260;;;3.8;100.0
68320;BME280;55168;51.120;17.024;2023-02-22T01:05:00;100260;;;3.8;100.0
68320;BME280;55168;51.120;17.024;2023-02-22T01:06:00;100250;;;3.8;100.0
68320;BME280;55168;51.120;17.024;2023-02-22T01:07:00;100260;;;3.8;100.0
68320;BME280;55168;51.120;17.024;2023-02-22T01:08:00;100260;;;3.8;100.0
68320;BME280;55168;51.120;17.024;2023-02-22T01:09:00;100260;;;3.8;100.0
68320;BME280;55168;51.120;17.024;2023-02-22T01:10:00;100260;;;3.8;100.0
68320;BME280;55168;51.120;17.024;2023-02-22T01:11:00;100260;;;3.8;100.0
68320;BME280;55168;51.120;17.024;2023-02-22T01:12:00;100260;;;3.8;100.0
68320;BME280;55168;51.120;17.024;2023-02-22T01:13:00;100260;;;3.8;100.0
68320;BME280;55168;51.120;17.024;2023-02-22T01:14:00;100260;;;3.8;100.0
68320;BME280;55168;51.120;17.024;2023-02-22T01:15:01;100260;;;3.8;100.0
68320;BME280;55168;51.120;17.024;2023-02-22T01:16:00;100260;;;3.8;100.0
68320;BME280;55168;51.120;17.024;2023-02-22T01:17:00;100260;;;3.8;100.0
68320;BME280;55168;51.120;17.024;2023-02-22T01:18:00;100260;;;3.8;100.0
68320;BME280;55168;51.120;17.024;2023-02-22T01:19:00;100260;;;3.8;100.0
68320;BME280;55168;51.120;17.024;2023-02-22T01:20:00;100260;;;3.9;100.0
68320;BME280;55168;51.120;17.024;2023-02-22T01:21:00;100260;;;3.9;100.0
68320;BME280;55168;51.120;17.024;2023-02-22T01:22:00;100260;;;3.9;100.0
68320;BME280;55168;51.120;17.024;2023-02-22T01:23:00;100260;;;3.9;100.0
68320;BME280;55168;51.120;17.024;2023-02-22T01:24:00;100260;;;3.8;100.0
68320;BME280;55168;51.120;17.024;2023-02-22T01:25:00;100260;;;3.8;100.0
68320;BME280;55168;51.120;17.024;2023-02-22T01:26:00;100260;;;3.8;100.0
68320;BME280;55168;51.120;17.024;2023-02-22T01:27:00;100260;;;3.8;100.0
68320;BME280;55168;51.120;17.024;2023-02-22T01:28:00;100270;;;3.8;100.0
68320;BME280;55168;51.120;17.024;2023-02-22T01:29:00;100260;;;3.8;100.0
68320;BME280;55168;51.120;17.024;2023-02-22T01:30:00;100260;;;3.8;100.0
68320;BME280;55168;51.120;17.024;2023-02-22T01:31:00;100260;;;3.8;100.0
68320;BME280;55168;51.120;17.024;2023-02-22T01:32:00;100260;;;3.8;100.0
68320;BME280;55168;51.120;17.024;2023-02-22T01:33:01;100260;;;3.8;100.0
68320;BME280;55168;51.120;17.024;2023-02-22T01:34:00;100260;;;3.8;100.0
68320;BME280;55168;51.120;17.024;2023-02-22T01:35:00;100260;;;3.8;100.0
68320;BME280;55168;51.120;17.024;2023-02-22T01:36:00;100260;;;3.8;100.0
68320;BME280;55168;51.120;17.024;2023-02-22T01:37:00;100260;;;3.7;100.0
68320;BME280;55168;51.120;17.024;2023-02-22T01:38:00;100260;;;3.7;100.0
68320;BME280;55168;51.120;17.024;2023-02-22T01:39:00;100260;;;3.7;100.0
68320;BME280;55168;51.120;17.024;2023-02-22T01:40:00;100260;;;3.7;100.0
68320;BME280;55168;51.120;17.024;2023-02-22T01:41:00;100260;;;3.7;100.0
68320;BME280;55168;51.120;17.024;2023-02-22T01:42:00;100260;;;3.7;100.0
68320;BME280;55168;51.120;17.024;2023-02-22T01:43:01;100260;;;3.7;100.0
68320;BME280;55168;51.120;17.024;2023-02-22T01:47:01;100260;;;3.8;100.0
68320;BME280;55168;51.120;17.024;2023-02-22T01:48:01;100260;;;3.8;100.0
68320;BME280;55168;51.120;17.024;2023-02-22T01:49:01;100260;;;3.8;100.0
68320;BME280;55168;51.120;17.024;2023-02-22T01:50:00;100260;;;3.8;100.0
68320;BME280;55168;51.120;17.024;2023-02-22T01:51:01;100260;;;3.7;100.0
68320;BME280;55168;51.120;17.024;2023-02-22T01:52:01;100260;;;3.7;100.0
68320;BME280;55168;51.120;17.024;2023-02-22T01:53:00;100260;;;3.7;100.0
68320;BME280;55168;51.120;17.024;2023-02-22T01:54:01;100260;;;3.7;100.0
68320;BME280;55168;51.120;17.024;2023-02-22T01:55:00;100260;;;3.7;100.0
68320;BME280;55168;51.120;17.024;2023-02-22T01:56:00;100260;;;3.7;100.0
68320;BME280;55168;51.120;17.024;2023-02-22T01:57:03;100260;;;3.7;100.0
68320;BME280;55168;51.120;17.024;2023-02-22T01:58:00;100260;;;3.7;100.0
68320;BME280;55168;51.120;17.024;2023-02-22T01:59:02;100260;;;3.7;100.0
68320;BME280;55168;51.120;17.024;2023-02-22T02:00:04;100250;;;3.6;100.0
68320;BME280;55168;51.120;17.024;2023-02-22T02:01:00;100260;;;3.6;100.0
68320;BME280;55168;51.120;17.024;2023-02-22T02:02:00;100260;;;3.6;100.0
68320;BME280;55168;51.120;17.024;2023-02-22T02:03:02;100260;;;3.6;100.0
68320;BME280;55168;51.120;17.024;2023-02-22T02:05:00;100260;;;3.6;100.0
68320;BME280;55168;51.120;17.024;2023-02-22T02:06:01;100260;;;3.6;100.0
68320;BME280;55168;51.120;17.024;2023-02-22T02:07:01;100260;;;3.6;100.0
68320;BME280;55168;51.120;17.024;2023-02-22T02:08:00;100260;;;3.6;100.0
68320;BME280;55168;51.120;17.024;2023-02-22T02:09:07;100250;;;3.6;100.0
68320;BME280;55168;51.120;17.024;2023-02-22T02:10:01;100260;;;3.6;100.0
68320;BME280;55168;51.120;17.024;2023-02-22T02:11:01;100260;;;3.6;100.0
68320;BME280;55168;51.120;17.024;2023-02-22T02:12:00;100250;;;3.6;100.0
68320;BME280;55168;51.120;17.024;2023-02-22T02:13:00;100250;;;3.5;100.0
68320;BME280;55168;51.120;17.024;2023-02-22T02:14:00;100250;;;3.5;100.0
68320;BME280;55168;51.120;17.024;2023-02-22T02:15:16;100260;;;3.5;100.0
68320;BME280;55168;51.120;17.024;2023-02-22T02:16:00;100260;;;3.5;100.0
68320;BME280;55168;51.120;17.024;2023-02-22T02:17:00;100260;;;3.5;100.0
68320;BME280;55168;51.120;17.024;2023-02-22T02:18:01;100260;;;3.5;100.0
68320;BME280;55168;51.120;17.024;2023-02-22T02:19:00;100260;;;3.5;100.0
68320;BME280;55168;51.120;17.024;2023-02-22T02:22:06;100260;;;3.5;100.0
68320;BME280;55168;51.120;17.024;2023-02-22T02:26:09;100260;;;3.4;100.0
68320;BME280;55168;51.120;17.024;2023-02-22T02:28:05;100270;;;3.4;100.0
68320;BME280;55168;51.120;17.024;2023-02-22T02:31:05;100260;;;3.4;100.0
68320;BME280;55168;51.120;17.024;2023-02-22T02:32:05;100260;;;3.4;100.0
68320;BME280;55168;51.120;17.024;2023-02-22T02:33:03;100260;;;3.4;100.0
68320;BME280;55168;51.120;17.024;2023-02-22T02:34:01;100260;;;3.4;100.0
68320;BME280;55168;51.120;17.024;2023-02-22T02:35:05;100260;;;3.4;100.0
68320;BME280;55168;51.120;17.024;2023-02-22T02:36:02;100260;;;3.4;100.0
68320;BME280;55168;51.120;17.024;2023-02-22T02:40:06;100260;;;3.4;100.0
68320;BME280;55168;51.120;17.024;2023-02-22T02:42:01;100260;;;3.4;100.0
68320;BME280;55168;51.120;17.024;2023-02-22T02:43:05;100260;;;3.4;100.0
68320;BME280;55168;51.120;17.024;2023-02-22T02:44:02;100250;;;3.5;100.0
68320;BME280;55168;51.120;17.024;2023-02-22T02:45:03;100260;;;3.5;100.0
68320;BME280;55168;51.120;17.024;2023-02-22T02:46:03;100260;;;3.5;100.0
68320;BME280;55168;51.120;17.024;2023-02-22T02:47:02;100250;;;3.5;100.0
68320;BME280;55168;51.120;17.024;2023-02-22T02:48:00;100260;;;3.5;100.0
68320;BME280;55168;51.120;17.024;2023-02-22T02:49:02;100250;;;3.5;100.0
68320;BME280;55168;51.120;17.024;2023-02-22T02:50:02;100250;;;3.5;100.0
68320;BME280;55168;51.120;17.024;2023-02-22T02:51:00;100250;;;3.5;100.0
68320;BME280;55168;51.120;17.024;2023-02-22T02:52:00;100250;;;3.5;100.0
68320;BME280;55168;51.120;17.024;2023-02-22T02:53:01;100250;;;3.5;100.0
68320;BME280;55168;51.120;17.024;2023-02-22T02:54:00;100250;;;3.5;100.0
68320;BME280;55168;51.120;17.024;2023-02-22T02:55:01;100250;;;3.5;100.0
68320;BME280;55168;51.120;17.024;2023-02-22T02:56:00;100250;;;3.5;100.0
68320;BME280;55168;51.120;17.024;2023-02-22T02:57:00;100250;;;3.5;100.0
68320;BME280;55168;51.120;17.024;2023-02-22T02:58:00;100260;;;3.5;100.0
68320;BME280;55168;51.120;17.024;2023-02-22T02:59:00;100250;;;3.5;100.0
68320;BME280;55168;51.120;17.024;2023-02-22T03:00:00;100260;;;3.5;100.0
68320;BME280;55168;51.120;17.024;2023-02-22T03:01:00;100250;;;3.5;100.0
68320;BME280;55168;51.120;17.024;2023-02-22T03:03:20;100260;;;3.5;100.0
68320;BME280;55168;51.120;17.024;2023-02-22T03:04:04;100250;;;3.6;100.0
68320;BME280;55168;51.120;17.024;2023-02-22T03:05:05;100250;;;3.6;100.0
68320;BME280;55168;51.120;17.024;2023-02-22T03:06:20;100250;;;3.6;100.0
68320;BME280;55168;51.120;17.024;2023-02-22T03:08:17;100260;;;3.6;100.0
68320;BME280;55168;51.120;17.024;2023-02-22T03:09:05;100260;;;3.6;100.0
68320;BME280;55168;51.120;17.024;2023-02-22T03:14:02;100260;;;3.7;100.0
68320;BME280;55168;51.120;17.024;2023-02-22T03:15:07;100260;;;3.7;100.0
68320;BME280;55168;51.120;17.024;2023-02-22T03:17:03;100260;;;3.8;100.0
68320;BME280;55168;51.120;17.024;2023-02-22T03:18:01;100250;;;3.8;100.0
68320;BME280;55168;51.120;17.024;2023-02-22T03:19:04;100250;;;3.8;100.0
68320;BME280;55168;51.120;17.024;2023-02-22T03:20:03;100260;;;3.8;100.0
68320;BME280;55168;51.120;17.024;2023-02-22T03:22:03;100260;;;3.8;100.0
68320;BME280;55168;51.120;17.024;2023-02-22T03:23:03;100260;;;3.8;100.0
68320;BME280;55168;51.120;17.024;2023-02-22T03:24:08;100260;;;3.8;100.0
68320;BME280;55168;51.120;17.024;2023-02-22T03:25:03;100260;;;3.8;100.0
68320;BME280;55168;51.120;17.024;2023-02-22T03:26:02;100250;;;3.7;100.0
68320;BME280;55168;51.120;17.024;2023-02-22T03:28:02;100260;;;3.8;100.0
68320;BME280;55168;51.120;17.024;2023-02-22T03:29:00;100260;;;3.8;100.0
68320;BME280;55168;51.120;17.024;2023-02-22T03:30:02;100250;;;3.8;100.0
68320;BME280;55168;51.120;17.024;2023-02-22T03:31:01;100260;;;3.8;100.0
68320;BME280;55168;51.120;17.024;2023-02-22T03:32:00;100250;;;3.8;100.0
68320;BME280;55168;51.120;17.024;2023-02-22T03:33:02;100260;;;3.8;100.0
68320;BME280;55168;51.120;17.024;2023-02-22T03:34:01;100260;;;3.8;100.0
68320;BME280;55168;51.120;17.024;2023-02-22T03:35:02;100260;;;3.8;100.0
68320;BME280;55168;51.120;17.024;2023-02-22T03:36:18;100260;;;3.8;100.0
68320;BME280;55168;51.120;17.024;2023-02-22T03:37:02;100260;;;3.8;100.0
68320;BME280;55168;51.120;17.024;2023-02-22T03:38:01;100260;;;3.8;100.0
68320;BME280;55168;51.120;17.024;2023-02-22T03:39:00;100260;;;3.8;100.0
68320;BME280;55168;51.120;17.024;2023-02-22T03:40:00;100260;;;3.9;100.0
68320;BME280;55168;51.120;17.024;2023-02-22T03:41:00;100260;;;3.9;100.0
68320;BME280;55168;51.120;17.024;2023-02-22T03:42:02;100260;;;3.9;100.0
68320;BME280;55168;51.120;17.024;2023-02-22T03:43:01;100260;;;3.9;100.0
68320;BME280;55168;51.120;17.024;2023-02-22T03:44:04;100260;;;3.9;100.0
68320;BME280;55168;51.120;17.024;2023-02-22T03:45:01;100260;;;3.9;100.0
68320;BME280;55168;51.120;17.024;2023-02-22T03:46:00;100260;;;3.9;100.0
68320;BME280;55168;51.120;17.024;2023-02-22T03:47:01;100260;;;3.9;100.0
68320;BME280;55168;51.120;17.024;2023-02-22T03:48:02;100260;;;3.9;100.0
68320;BME280;55168;51.120;17.024;2023-02-22T03:49:01;100260;;;3.9;100.0
68320;BME280;55168;51.120;17.024;2023-02-22T03:50:02;100260;;;4.0;100.0
68320;BME280;55168;51.120;17.024;2023-02-22T03:51:00;100260;;;4.0;100.0
68320;BME280;55168;51.120;17.024;2023-02-22T03:52:00;100260;;;4.0;100.0
68320;BME280;55168;51.120;17.024;2023-02-22T03:53:00;100260;;;4.0;100.0
68320;BME280;55168;51.120;17.024;2023-02-22T03:54:00;100260;;;4.0;100.0
68320;BME280;55168;51.120;17.024;2023-02-22T03:55:00;100260;;;4.0;100.0
68320;BME280;55168;51.120;17.024;2023-02-22T03:56:00;100260;;;4.0;100.0
68320;BME280;55168;51.120;17.024;2023-02-22T03:57:09;100260;;;4.0;100.0
68320;BME280;55168;51.120;17.024;2023-02-22T03:58:01;100260;;;4.0;100.0
68320;BME280;55168;51.120;17.024;2023-02-22T03:59:02;100270;;;4.0;100.0
68320;BME280;55168;51.120;17.024;2023-02-22T04:00:00;100260;;;4.0;100.0
68320;BME280;55168;51.120;17.024;2023-02-22T04:01:00;100260;;;4.0;100.0
68320;BME280;55168;51.120;17.024;2023-02-22T04:02:00;100260;;;4.0;100.0
68320;BME280;55168;51.120;17.024;2023-02-22T04:03:00;100260;;;4.0;100.0
68320;BME280;55168;51.120;17.024;2023-02-22T04:04:00;100260;;;4.0;100.0
68320;BME280;55168;51.120;17.024;2023-02-22T04:05:00;100270;;;4.0;100.0
68320;BME280;55168;51.120;17.024;2023-02-22T04:06:00;100270;;;4.0;100.0
68320;BME280;55168;51.120;17.024;2023-02-22T04:07:00;100270;;;4.0;100.0
68320;BME280;55168;51.120;17.024;2023-02-22T04:08:00;100270;;;4.0;100.0
68320;BME280;55168;51.120;17.024;2023-02-22T04:09:00;100270;;;4.0;100.0
68320;BME280;55168;51.120;17.024;2023-02-22T04:10:00;100270;;;4.1;100.0
68320;BME280;55168;51.120;17.024;2023-02-22T04:11:00;100270;;;4.1;100.0
68320;BME280;55168;51.120;17.024;2023-02-22T04:12:00;100270;;;4.1;100.0
68320;BME280;55168;51.120;17.024;2023-02-22T04:13:00;100270;;;4.1;100.0
68320;BME280;55168;51.120;17.024;2023-02-22T04:14:00;100270;;;4.1;100.0
68320;BME280;55168;51.120;17.024;2023-02-22T04:15:00;100270;;;4.1;100.0
68320;BME280;55168;51.120;17.024;2023-02-22T04:16:00;100270;;;4.1;100.0
68320;BME280;55168;51.120;17.024;2023-02-22T04:17:00;100270;;;4.1;100.0
68320;BME280;55168;51.120;17.024;2023-02-22T04:18:00;100270;;;4.1;100.0
68320;BME280;55168;51.120;17.024;2023-02-22T04:19:00;100270;;;4.1;100.0
68320;BME280;55168;51.120;17.024;2023-02-22T04:20:00;100270;;;4.1;100.0
68320;BME280;55168;51.120;17.024;2023-02-22T04:21:00;100270;;;4.1;100.0
68320;BME280;55168;51.120;17.024;2023-02-22T04:22:00;100270;;;4.1;100.0
68320;BME280;55168;51.120;17.024;2023-02-22T04:23:00;100270;;;4.1;100.0
68320;BME280;55168;51.120;17.024;2023-02-22T04:24:00;100270;;;4.1;100.0
68320;BME280;55168;51.120;17.024;2023-02-22T04:25:00;100270;;;4.1;100.0
68320;BME280;55168;51.120;17.024;2023-02-22T04:26:00;100270;;;4.1;100.0
68320;BME280;55168;51.120;17.024;2023-02-22T04:27:00;100260;;;4.1;100.0
68320;BME280;55168;51.120;17.024;2023-02-22T04:28:00;100260;;;4.1;100.0
68320;BME280;55168;51.120;17.024;2023-02-22T04:29:00;100260;;;4.1;100.0
68320;BME280;55168;51.120;17.024;2023-02-22T04:30:00;100260;;;4.1;100.0
68320;BME280;55168;51.120;17.024;2023-02-22T04:31:00;100260;;;4.1;100.0
68320;BME280;55168;51.120;17.024;2023-02-22T04:32:00;100270;;;4.1;100.0
68320;BME280;55168;51.120;17.024;2023-02-22T04:33:00;100260;;;4.1;100.0
68320;BME280;55168;51.120;17.024;2023-02-22T04:34:00;100270;;;4.1;100.0
68320;BME280;55168;51.120;17.024;2023-02-22T04:35:00;100260;;;4.1;100.0
68320;BME280;55168;51.120;17.024;2023-02-22T04:36:00;100260;;;4.1;100.0
68320;BME280;55168;51.120;17.024;2023-02-22T04:37:00;100260;;;4.1;100.0
68320;BME280;55168;51.120;17.024;2023-02-22T04:38:00;100260;;;4.1;100.0
68320;BME280;55168;51.120;17.024;2023-02-22T04:39:00;100260;;;4.1;100.0
68320;BME280;55168;51.120;17.024;2023-02-22T04:40:00;100260;;;4.1;100.0
68320;BME280;55168;51.120;17.024;2023-02-22T04:41:00;100260;;;4.1;100.0
68320;BME280;55168;51.120;17.024;2023-02-22T04:42:00;100260;;;4.1;100.0
68320;BME280;55168;51.120;17.024;2023-02-22T04:43:00;100260;;;4.1;100.0
68320;BME280;55168;51.120;17.024;2023-02-22T04:44:00;100260;;;4.1;100.0
68320;BME280;55168;51.120;17.024;2023-02-22T04:45:00;100260;;;4.2;100.0
68320;BME280;55168;51.120;17.024;2023-02-22T04:46:00;100260;;;4.2;100.0
68320;BME280;55168;51.120;17.024;2023-02-22T04:47:00;100260;;;4.2;100.0
68320;BME280;55168;51.120;17.024;2023-02-22T04:48:00;100260;;;4.2;100.0
68320;BME280;55168;51.120;17.024;2023-02-22T04:49:00;100260;;;4.2;100.0
68320;BME280;55168;51.120;17.024;2023-02-22T04:50:00;100260;;;4.2;100.0
68320;BME280;55168;51.120;17.024;2023-02-22T04:51:00;100260;;;4.3;100.0
68320;BME280;55168;51.120;17.024;2023-02-22T04:52:00;100260;;;4.3;100.0
68320;BME280;55168;51.120;17.024;2023-02-22T04:53:00;100260;;;4.3;100.0
68320;BME280;55168;51.120;17.024;2023-02-22T04:54:00;100250;;;4.3;100.0
68320;BME280;55168;51.120;17.024;2023-02-22T04:55:00;100260;;;4.3;100.0
68320;BME280;55168;51.120;17.024;2023-02-22T04:56:00;100250;;;4.3;100.0
68320;BME280;55168;51.120;17.024;2023-02-22T04:57:00;100260;;;4.3;100.0
68320;BME280;55168;51.120;17.024;2023-02-22T04:58:00;100260;;;4.3;100.0
68320;BME280;55168;51.120;17.024;2023-02-22T04:59:00;100250;;;4.4;100.0
68320;BME280;55168;51.120;17.024;2023-02-22T05:00:00;100250;;;4.4;100.0
68320;BME280;55168;51.120;17.024;2023-02-22T05:01:00;100250;;;4.4;100.0
68320;BME280;55168;51.120;17.024;2023-02-22T05:02:00;100250;;;4.4;100.0
68320;BME280;55168;51.120;17.024;2023-02-22T05:03:00;100250;;;4.4;100.0
68320;BME280;55168;51.120;17.024;2023-02-22T05:04:01;100260;;;4.4;100.0
68320;BME280;55168;51.120;17.024;2023-02-22T05:05:00;100250;;;4.4;100.0
68320;BME280;55168;51.120;17.024;2023-02-22T05:06:00;100250;;;4.4;100.0
68320;BME280;55168;51.120;17.024;2023-02-22T05:07:00;100250;;;4.3;100.0
68320;BME280;55168;51.120;17.024;2023-02-22T05:08:00;100250;;;4.3;100.0
68320;BME280;55168;51.120;17.024;2023-02-22T05:09:00;100260;;;4.3;100.0
68320;BME280;55168;51.120;17.024;2023-02-22T05:10:00;100250;;;4.3;100.0
68320;BME280;55168;51.120;17.024;2023-02-22T05:11:00;100250;;;4.3;100.0
68320;BME280;55168;51.120;17.024;2023-02-22T05:12:00;100250;;;4.3;100.0
68320;BME280;55168;51.120;17.024;2023-02-22T05:13:00;100260;;;4.3;100.0
68320;BME280;55168;51.120;17.024;2023-02-22T05:14:00;100260;;;4.3;100.0
68320;BME280;55168;51.120;17.024;2023-02-22T05:15:00;100260;;;4.3;100.0
68320;BME280;55168;51.120;17.024;2023-02-22T05:16:00;100250;;;4.2;100.0
68320;BME280;55168;51.120;17.024;2023-02-22T05:17:00;100250;;;4.2;100.0
68320;BME280;55168;51.120;17.024;2023-02-22T05:18:00;100250;;;4.2;100.0
68320;BME280;55168;51.120;17.024;2023-02-22T05:19:00;100250;;;4.2;100.0
68320;BME280;55168;51.120;17.024;2023-02-22T05:20:00;100250;;;4.2;100.0
68320;BME280;55168;51.120;17.024;2023-02-22T05:21:00;100250;;;4.2;100.0
68320;BME280;55168;51.120;17.024;2023-02-22T05:22:00;100250;;;4.2;100.0
68320;BME280;55168;51.120;17.024;2023-02-22T05:23:00;100250;;;4.2;100.0
68320;BME280;55168;51.120;17.024;2023-02-22T05:24:00;100250;;;4.2;100.0
68320;BME280;55168;51.120;17.024;2023-02-22T05:25:00;100240;;;4.1;100.0
68320;BME280;55168;51.120;17.024;2023-02-22T05:26:00;100250;;;4.1;100.0
68320;BME280;55168;51.120;17.024;2023-02-22T05:27:00;100250;;;4.1;100.0
68320;BME280;55168;51.120;17.024;2023-02-22T05:28:02;100250;;;4.1;100.0
68320;BME280;55168;51.120;17.024;2023-02-22T05:29:00;100240;;;4.1;100.0
68320;BME280;55168;51.120;17.024;2023-02-22T05:30:00;100250;;;4.1;100.0
68320;BME280;55168;51.120;17.024;2023-02-22T05:31:00;100250;;;4.0;100.0
68320;BME280;55168;51.120;17.024;2023-02-22T05:32:00;100250;;;4.0;100.0
68320;BME280;55168;51.120;17.024;2023-02-22T05:33:00;100250;;;4.0;100.0
68320;BME280;55168;51.120;17.024;2023-02-22T05:34:00;100250;;;4.0;100.0
68320;BME280;55168;51.120;17.024;2023-02-22T05:35:00;100250;;;4.0;100.0
68320;BME280;55168;51.120;17.024;2023-02-22T05:36:00;100250;;;4.0;100.0
68320;BME280;55168;51.120;17.024;2023-02-22T05:37:00;100250;;;4.0;100.0
68320;BME280;55168;51.120;17.024;2023-02-22T05:38:00;100250;;;4.0;100.0
68320;BME280;55168;51.120;17.024;2023-02-22T05:39:00;100250;;;4.1;100.0
68320;BME280;55168;51.120;17.024;2023-02-22T05:40:00;100250;;;4.1;100.0
68320;BME280;55168;51.120;17.024;2023-02-22T05:41:00;100260;;;4.1;100.0
68320;BME280;55168;51.120;17.024;2023-02-22T05:42:00;100260;;;4.1;100.0
68320;BME280;55168;51.120;17.024;2023-02-22T05:43:00;100260;;;4.1;100.0
68320;BME280;55168;51.120;17.024;2023-02-22T05:44:00;100250;;;4.2;100.0
68320;BME280;55168;51.120;17.024;2023-02-22T05:45:00;100260;;;4.2;100.0
68320;BME280;55168;51.120;17.024;2023-02-22T05:46:00;100260;;;4.2;100.0
68320;BME280;55168;51.120;17.024;2023-02-22T05:47:00;100260;;;4.2;100.0
68320;BME280;55168;51.120;17.024;2023-02-22T05:48:00;100260;;;4.2;100.0
68320;BME280;55168;51.120;17.024;2023-02-22T05:49:00;100260;;;4.2;100.0
68320;BME280;55168;51.120;17.024;2023-02-22T05:50:00;100260;;;4.2;100.0
68320;BME280;55168;51.120;17.024;2023-02-22T05:51:00;100260;;;4.2;100.0
68320;BME280;55168;51.120;17.024;2023-02-22T05:52:00;100260;;;4.2;100.0
68320;BME280;55168;51.120;17.024;2023-02-22T05:53:00;100270;;;4.2;100.0
68320;BME280;55168;51.120;17.024;2023-02-22T05:54:00;100270;;;4.2;100.0
68320;BME280;55168;51.120;17.024;2023-02-22T05:55:00;100270;;;4.2;100.0